Time;durP1;ratioP1;P1;durP2;ratioP2;P2;SDS_P1;SDS_P2;PMS_P1;PMS_P2;Temp;Humidity;BMP_temperature;BMP_pressure;BME280_temperature;BME280_humidity;BME280_pressure;Samples;Min_cycle;Max_cycle;Signal;HPM_P1;HPM_P2
2022/11/11 00:02:26;;;;;;;54.47;24.75;;;8.70;78.30;;;;;;4968030;28;20461;-68
2022/11/11 00:05:13;;;;;;;38.63;19.73;;;8.60;78.30;;;;;;4973730;28;20214;-68
2022/11/11 00:08:00;;;;;;;24.00;14.02;;;8.60;78.50;;;;;;4966536;28;20457;-68
2022/11/11 00:10:46;;;;;;;35.28;18.70;;;8.60;78.40;;;;;;4964863;28;20211;-68
2022/11/11 00:13:33;;;;;;;33.53;19.55;;;8.60;78.50;;;;;;4966052;28;20319;-68
2022/11/11 00:16:22;;;;;;;27.02;17.20;;;8.60;78.50;;;;;;4967967;28;20290;-68
2022/11/11 00:25:25;;;;;;;20.90;11.73;;;8.70;78.70;;;;;;4966926;28;20465;-68
2022/11/11 00:28:12;;;;;;;16.80;9.20;;;8.70;78.60;;;;;;4967932;28;20449;-68
2022/11/11 00:31:03;;;;;;;17.80;8.87;;;8.70;78.50;;;;;;4967429;28;20214;-68
2022/11/11 00:33:53;;;;;;;18.20;10.02;;;8.70;78.40;;;;;;4968337;28;20454;-69
2022/11/11 00:36:39;;;;;;;18.38;10.23;;;8.70;78.40;;;;;;4964832;28;20274;-68
2022/11/11 00:39:30;;;;;;;16.40;8.90;;;8.70;78.40;;;;;;4967168;28;20239;-68
2022/11/11 00:42:17;;;;;;;17.23;9.10;;;8.60;78.40;;;;;;4966064;28;20477;-68
2022/11/11 00:45:04;;;;;;;21.67;12.05;;;8.60;78.30;;;;;;4971397;28;20221;-68
2022/11/11 00:50:59;;;;;;;15.98;8.70;;;8.50;78.20;;;;;;4968019;28;20210;-68
2022/11/11 00:53:45;;;;;;;14.20;8.00;;;8.50;78.20;;;;;;4966900;28;20309;-68
2022/11/11 00:56:32;;;;;;;15.68;8.55;;;8.50;78.30;;;;;;4964622;28;20823;-68
2022/11/11 00:59:19;;;;;;;14.77;8.20;;;8.50;78.20;;;;;;4968569;28;20207;-68
2022/11/11 01:02:05;;;;;;;13.50;7.80;;;8.50;78.10;;;;;;4964099;28;20468;-68
2022/11/11 01:04:52;;;;;;;15.37;7.97;;;8.50;78.10;;;;;;4964793;28;20211;-68
2022/11/11 01:07:40;;;;;;;13.80;8.05;;;8.50;78.10;;;;;;4964933;28;21103;-68
2022/11/11 01:10:40;;;;;;;12.45;7.82;;;8.50;78.20;;;;;;4966980;28;20215;-68
2022/11/11 01:13:29;;;;;;;13.73;7.05;;;8.50;78.10;;;;;;4966311;28;20258;-68
2022/11/11 01:16:19;;;;;;;12.60;7.05;;;8.50;78.20;;;;;;4968402;28;20227;-68
2022/11/11 01:19:06;;;;;;;12.65;7.68;;;8.50;78.20;;;;;;4970692;28;20218;-68
2022/11/11 01:21:52;;;;;;;14.50;7.47;;;8.50;78.10;;;;;;4970710;28;20230;-68
2022/11/11 01:24:40;;;;;;;14.35;8.18;;;8.40;78.00;;;;;;4965360;28;20210;-68
2022/11/11 01:27:26;;;;;;;15.68;8.65;;;8.40;78.00;;;;;;4965243;28;20354;-68
2022/11/11 01:30:13;;;;;;;18.45;11.20;;;8.40;77.90;;;;;;4965896;28;20305;-68
2022/11/11 01:32:59;;;;;;;18.63;10.13;;;8.30;77.90;;;;;;4965858;28;20226;-69
2022/11/11 01:35:46;;;;;;;15.38;9.73;;;8.30;77.90;;;;;;4966654;28;20260;-68
2022/11/11 01:38:32;;;;;;;18.25;9.75;;;8.20;78.00;;;;;;4968125;28;20219;-68
2022/11/11 01:41:35;;;;;;;13.10;8.50;;;8.20;78.10;;;;;;4968540;28;20253;-69
2022/11/11 01:44:45;;;;;;;13.38;7.35;;;8.20;78.30;;;;;;4968159;28;20786;-68
2022/11/11 01:49:17;;;;;;;14.80;7.22;;;8.20;78.20;;;;;;4970937;28;20704;-68
2022/11/11 01:50:59;;;;;;;19.92;9.85;;;8.20;78.10;;;;;;4967098;28;20225;-68
2022/11/11 01:53:52;;;;;;;35.88;17.35;;;8.20;78.00;;;;;;4966242;28;20214;-68
2022/11/11 01:56:40;;;;;;;20.02;10.38;;;8.10;77.80;;;;;;4966264;28;20242;-68
2022/11/11 01:59:30;;;;;;;14.95;8.10;;;8.10;77.80;;;;;;4968507;28;20230;-68
2022/11/11 02:02:21;;;;;;;14.55;8.07;;;8.10;77.60;;;;;;4968728;28;20317;-69
2022/11/11 02:08:30;;;;;;;23.75;9.73;;;8.00;78.00;;;;;;4971383;28;20299;-68
2022/11/11 02:14:34;;;;;;;18.13;8.05;;;8.00;78.10;;;;;;4968959;28;20217;-68
2022/11/11 02:14:38;;;;;;;14.30;7.28;;;8.10;78.10;;;;;;4967234;28;20330;-68
2022/11/11 02:17:29;;;;;;;13.77;7.90;;;8.10;78.10;;;;;;4968470;28;20258;-68
2022/11/11 02:20:18;;;;;;;20.38;8.45;;;8.10;78.00;;;;;;4967965;28;20238;-68
2022/11/11 02:23:08;;;;;;;17.80;10.60;;;8.10;78.00;;;;;;4967881;28;20222;-68
2022/11/11 02:25:58;;;;;;;23.33;10.90;;;8.10;77.90;;;;;;4968585;28;20329;-68
2022/11/11 02:28:46;;;;;;;20.02;10.82;;;8.00;78.00;;;;;;4969685;28;20226;-68
2022/11/11 02:31:33;;;;;;;17.90;9.48;;;8.00;78.00;;;;;;4966202;28;20606;-68
2022/11/11 02:34:20;;;;;;;19.65;10.23;;;8.00;78.00;;;;;;4965530;28;20222;-68
2022/11/11 02:37:08;;;;;;;22.05;10.98;;;8.00;78.00;;;;;;4965468;28;20277;-68
2022/11/11 02:40:01;;;;;;;17.90;9.77;;;8.00;78.10;;;;;;4969624;28;20692;-68
2022/11/11 02:42:52;;;;;;;20.75;10.25;;;8.00;78.10;;;;;;4965185;28;20601;-68
2022/11/11 02:45:39;;;;;;;19.30;7.95;;;8.00;78.00;;;;;;4965719;28;20222;-68
2022/11/11 02:48:26;;;;;;;11.15;7.20;;;7.90;78.00;;;;;;4965412;28;20217;-68
2022/11/11 02:51:13;;;;;;;21.92;8.00;;;7.90;78.10;;;;;;4963882;28;20210;-68
2022/11/11 02:54:01;;;;;;;15.25;8.05;;;8.00;78.20;;;;;;4963051;28;20221;-68
2022/11/11 02:57:07;;;;;;;17.95;11.77;;;7.90;78.10;;;;;;4969597;28;20249;-68
2022/11/11 02:59:57;;;;;;;16.02;9.55;;;7.90;78.10;;;;;;4961889;28;20326;-68
2022/11/11 03:02:43;;;;;;;26.92;14.70;;;7.90;78.20;;;;;;4963971;28;20320;-68
2022/11/11 03:05:31;;;;;;;21.00;14.38;;;7.90;78.20;;;;;;4965881;28;20223;-68
2022/11/11 03:08:17;;;;;;;16.33;10.50;;;7.90;78.20;;;;;;4965809;28;20218;-68
2022/11/11 03:11:04;;;;;;;15.73;9.93;;;7.80;78.10;;;;;;4967277;28;20222;-68
2022/11/11 03:13:51;;;;;;;21.98;9.68;;;7.80;78.20;;;;;;4962375;28;20229;-68
2022/11/11 03:19:43;;;;;;;24.13;10.93;;;7.80;78.50;;;;;;4966212;28;20218;-68
2022/11/11 03:22:29;;;;;;;21.00;10.77;;;7.80;78.50;;;;;;4975826;28;20326;-68
2022/11/11 03:25:39;;;;;;;18.65;9.45;;;7.90;78.50;;;;;;4967604;28;20218;-68
2022/11/11 03:28:26;;;;;;;18.25;9.82;;;7.90;78.60;;;;;;4967848;28;20214;-68
2022/11/11 03:31:12;;;;;;;13.38;8.85;;;7.90;78.60;;;;;;4970678;28;20723;-68
2022/11/11 03:34:16;;;;;;;17.73;8.02;;;7.90;78.60;;;;;;4969389;28;20222;-68
2022/11/11 03:40:11;;;;;;;13.85;7.03;;;7.90;78.60;;;;;;4968398;28;20217;-68
2022/11/11 03:42:57;;;;;;;15.50;7.03;;;7.90;78.70;;;;;;4967924;28;20742;-68
2022/11/11 03:45:51;;;;;;;10.90;6.45;;;8.00;78.70;;;;;;4967228;28;20309;-68
2022/11/11 03:48:37;;;;;;;9.27;6.03;;;8.00;78.60;;;;;;4970505;28;20296;-68
2022/11/11 03:51:25;;;;;;;8.13;5.75;;;7.90;78.60;;;;;;4967930;28;21114;-68
2022/11/11 03:54:12;;;;;;;8.43;5.05;;;7.90;78.60;;;;;;4967334;28;20217;-68
2022/11/11 03:59:59;;;;;;;7.53;4.63;;;7.90;78.70;;;;;;4972506;28;20222;-68
2022/11/11 04:12:00;;;;;;;11.30;5.05;;;7.90;78.90;;;;;;4969797;28;20215;-68
2022/11/11 04:17:51;;;;;;;10.05;4.97;;;7.90;78.90;;;;;;4969105;28;20362;-68
2022/11/11 04:23:47;;;;;;;7.13;4.13;;;7.90;78.90;;;;;;4938320;28;20628;-68
2022/11/11 04:26:34;;;;;;;7.13;4.85;;;7.90;79.00;;;;;;4970552;28;20365;-68
2022/11/11 04:29:30;;;;;;;6.93;4.40;;;8.00;79.00;;;;;;4971241;28;20327;-68
2022/11/11 04:32:38;;;;;;;8.57;4.85;;;8.00;79.00;;;;;;4964676;28;20577;-68
2022/11/11 04:35:25;;;;;;;8.00;5.10;;;7.90;79.00;;;;;;4967235;28;20218;-68
2022/11/11 04:41:16;;;;;;;17.88;4.38;;;8.00;79.10;;;;;;4969720;28;20397;-68
2022/11/11 04:47:09;;;;;;;11.35;4.45;;;8.00;79.10;;;;;;4968239;28;20238;-68
2022/11/11 04:49:55;;;;;;;11.75;4.60;;;7.90;79.10;;;;;;4968829;28;20584;-68
2022/11/11 04:52:43;;;;;;;14.00;4.32;;;7.90;79.10;;;;;;4967390;28;20331;-68
2022/11/11 04:58:35;;;;;;;7.47;4.35;;;7.90;79.10;;;;;;4970674;28;21101;-68
2022/11/11 05:04:23;;;;;;;6.45;4.20;;;7.90;79.20;;;;;;4969664;28;20221;-68
2022/11/11 05:10:14;;;;;;;7.07;4.22;;;7.90;79.30;;;;;;4964801;28;20205;-68
2022/11/11 05:22:26;;;;;;;9.25;5.00;;;7.90;79.30;;;;;;4967017;28;20222;-68
2022/11/11 05:25:29;;;;;;;8.88;4.50;;;7.90;79.20;;;;;;4965200;28;20839;-68
2022/11/11 05:28:16;;;;;;;15.55;4.45;;;7.80;79.20;;;;;;4970280;28;20580;-68
2022/11/11 05:31:02;;;;;;;13.60;4.68;;;7.80;79.20;;;;;;4966040;28;20707;-68
2022/11/11 05:33:49;;;;;;;6.55;4.32;;;7.80;79.20;;;;;;4969976;28;20265;-68
2022/11/11 05:36:36;;;;;;;9.25;4.70;;;7.70;79.20;;;;;;4966654;28;20241;-69
2022/11/11 05:39:23;;;;;;;7.25;4.00;;;7.70;79.30;;;;;;4968911;28;21001;-68
2022/11/11 05:42:10;;;;;;;13.68;4.82;;;7.70;79.30;;;;;;4968131;28;20689;-68
2022/11/11 05:44:57;;;;;;;10.15;5.30;;;7.70;79.20;;;;;;4969798;28;20214;-69
2022/11/11 05:47:43;;;;;;;11.18;4.45;;;7.70;79.10;;;;;;4969068;28;20357;-68
2022/11/11 05:50:29;;;;;;;10.73;5.10;;;7.60;79.10;;;;;;4967463;28;20766;-68
2022/11/11 05:53:22;;;;;;;7.30;4.55;;;7.60;79.10;;;;;;4967068;28;20257;-68
2022/11/11 05:56:09;;;;;;;6.85;4.38;;;7.50;79.10;;;;;;4967288;28;20719;-68
2022/11/11 05:58:56;;;;;;;8.55;4.10;;;7.50;79.10;;;;;;4966280;28;20225;-68
2022/11/11 06:01:43;;;;;;;7.53;4.65;;;7.40;79.20;;;;;;4969036;28;20602;-68
2022/11/11 06:04:30;;;;;;;7.18;4.78;;;7.40;79.20;;;;;;4965729;28;20210;-68
2022/11/11 06:07:17;;;;;;;6.30;4.20;;;7.40;79.30;;;;;;4967706;28;20285;-68
2022/11/11 06:13:12;;;;;;;12.52;4.65;;;7.40;79.20;;;;;;4965882;28;21078;-68
2022/11/11 06:15:59;;;;;;;10.45;4.18;;;7.30;79.00;;;;;;4964173;28;21719;-68
2022/11/11 06:18:46;;;;;;;8.73;4.20;;;7.30;79.10;;;;;;4968840;28;20237;-68
2022/11/11 06:21:55;;;;;;;6.95;3.83;;;7.30;79.20;;;;;;4968937;28;20326;-68
2022/11/11 06:24:39;;;;;;;7.65;4.55;;;7.30;79.30;;;;;;4965794;28;20222;-69
2022/11/11 06:27:26;;;;;;;6.95;4.03;;;7.30;79.30;;;;;;4966938;28;20330;-68
2022/11/11 06:30:13;;;;;;;7.75;3.95;;;7.30;79.30;;;;;;4967855;28;20225;-68
2022/11/11 06:33:20;;;;;;;6.25;4.00;;;7.40;79.30;;;;;;4970705;28;20754;-68
2022/11/11 06:36:09;;;;;;;7.38;4.40;;;7.40;79.30;;;;;;4970751;28;20245;-68
2022/11/11 06:38:56;;;;;;;6.85;4.30;;;7.40;79.30;;;;;;4968428;28;20899;-68
2022/11/11 06:41:42;;;;;;;6.05;3.45;;;7.40;79.30;;;;;;4965538;28;20242;-68
2022/11/11 06:44:30;;;;;;;10.15;4.90;;;7.40;79.30;;;;;;4966977;28;20238;-68
2022/11/11 06:47:16;;;;;;;6.78;4.30;;;7.40;79.20;;;;;;4968272;28;20605;-68
2022/11/11 06:50:03;;;;;;;8.23;4.80;;;7.40;79.30;;;;;;4972847;28;20214;-69
2022/11/11 06:52:50;;;;;;;8.63;5.22;;;7.40;79.30;;;;;;4971700;28;20274;-68
2022/11/11 06:55:36;;;;;;;8.25;4.35;;;7.40;79.30;;;;;;4962024;28;20221;-68
2022/11/11 06:58:23;;;;;;;7.05;4.50;;;7.40;79.30;;;;;;4969560;28;20233;-68
2022/11/11 07:01:13;;;;;;;6.57;4.15;;;7.50;79.20;;;;;;4969140;28;20223;-68
2022/11/11 07:03:59;;;;;;;7.97;4.43;;;7.50;79.20;;;;;;4963704;28;20358;-68
2022/11/11 07:06:46;;;;;;;7.72;5.10;;;7.50;79.20;;;;;;4964304;28;20250;-68
2022/11/11 07:09:32;;;;;;;8.48;5.30;;;7.50;79.20;;;;;;4965981;28;20301;-69
2022/11/11 07:12:19;;;;;;;10.07;6.00;;;7.60;79.20;;;;;;4968434;28;20930;-68
2022/11/11 07:15:05;;;;;;;7.50;4.50;;;7.60;79.20;;;;;;4965086;28;20222;-68
2022/11/11 07:17:53;;;;;;;8.52;5.00;;;7.60;79.20;;;;;;4964602;28;20755;-68
2022/11/11 07:20:40;;;;;;;6.68;3.90;;;7.60;79.20;;;;;;4967551;28;20754;-68
2022/11/11 07:23:27;;;;;;;7.72;4.28;;;7.70;79.20;;;;;;4966348;28;20230;-68
2022/11/11 07:26:13;;;;;;;7.97;4.20;;;7.70;79.20;;;;;;4959816;28;20238;-69
2022/11/11 07:28:59;;;;;;;7.35;4.60;;;7.70;79.10;;;;;;4965356;28;20877;-68
2022/11/11 07:31:46;;;;;;;12.27;5.32;;;7.70;79.20;;;;;;4966947;28;20350;-68
2022/11/11 07:34:34;;;;;;;10.43;6.75;;;7.70;79.10;;;;;;4964753;28;20207;-68
2022/11/11 07:37:21;;;;;;;6.95;4.20;;;7.60;79.10;;;;;;4964191;28;20309;-68
2022/11/11 07:40:08;;;;;;;6.75;3.65;;;7.60;79.20;;;;;;4964828;28;20322;-68
2022/11/11 07:42:55;;;;;;;6.43;4.30;;;7.60;79.20;;;;;;4963548;28;20294;-68
2022/11/11 07:45:42;;;;;;;13.38;9.52;;;7.60;79.20;;;;;;4968429;28;20269;-68
2022/11/11 07:48:29;;;;;;;14.20;9.63;;;7.70;79.20;;;;;;4963830;28;20313;-68
2022/11/11 07:51:16;;;;;;;13.30;8.75;;;7.70;79.20;;;;;;4965303;28;20218;-68
2022/11/11 07:54:03;;;;;;;12.40;8.02;;;7.70;79.20;;;;;;4967393;28;20223;-68
2022/11/11 07:56:50;;;;;;;9.75;6.10;;;7.70;79.20;;;;;;4962779;28;20230;-68
2022/11/11 07:59:36;;;;;;;14.88;6.95;;;7.70;79.30;;;;;;4966433;28;20230;-68
2022/11/11 08:02:23;;;;;;;11.82;5.53;;;7.70;79.10;;;;;;4964619;28;20214;-68
2022/11/11 08:05:10;;;;;;;15.95;8.43;;;7.60;79.20;;;;;;4970250;28;20310;-68
2022/11/11 08:08:03;;;;;;;13.68;9.18;;;7.60;79.30;;;;;;5021846;28;20270;-68
2022/11/11 08:10:50;;;;;;;12.70;9.52;;;7.60;79.30;;;;;;5026234;28;20799;-67
2022/11/11 08:13:42;;;;;;;12.52;7.15;;;7.70;79.30;;;;;;5022667;28;20625;-68
2022/11/11 08:16:28;;;;;;;9.77;6.80;;;7.70;79.50;;;;;;5029914;28;20231;-67
2022/11/11 08:19:15;;;;;;;11.60;6.03;;;7.70;79.40;;;;;;5024719;28;20275;-68
2022/11/11 08:22:01;;;;;;;11.68;6.57;;;7.70;79.50;;;;;;5026613;28;20232;-69
2022/11/11 08:24:49;;;;;;;11.45;6.90;;;7.80;79.60;;;;;;5031837;28;20900;-69
2022/11/11 08:27:57;;;;;;;10.13;7.00;;;7.80;79.60;;;;;;5026034;28;20240;-68
2022/11/11 08:30:43;;;;;;;9.15;5.25;;;7.80;79.60;;;;;;5025721;28;20221;-68
2022/11/11 08:33:30;;;;;;;10.45;4.13;;;7.90;79.60;;;;;;5026502;28;20602;-69
2022/11/11 08:36:22;;;;;;;10.10;4.65;;;7.90;79.70;;;;;;5030021;28;20799;-68
2022/11/11 08:39:09;;;;;;;9.85;3.85;;;7.90;79.70;;;;;;5025322;28;20213;-68
2022/11/11 08:41:56;;;;;;;6.90;4.25;;;7.90;79.70;;;;;;5029054;28;20283;-69
2022/11/11 08:44:43;;;;;;;7.32;4.10;;;7.90;79.80;;;;;;5030548;28;20232;-69
2022/11/11 08:47:29;;;;;;;9.73;4.38;;;7.90;79.80;;;;;;5026281;28;20237;-69
2022/11/11 08:50:16;;;;;;;13.18;4.30;;;7.90;79.90;;;;;;5029496;28;20331;-68
2022/11/11 08:53:03;;;;;;;7.85;3.95;;;8.00;79.90;;;;;;5021465;28;20221;-68
2022/11/11 08:55:50;;;;;;;7.35;3.80;;;8.00;80.00;;;;;;5022471;28;20236;-69
2022/11/11 08:58:38;;;;;;;7.30;3.47;;;8.00;80.10;;;;;;5027441;28;20279;-69
2022/11/11 09:01:24;;;;;;;8.55;4.93;;;8.10;80.20;;;;;;5027326;28;20280;-69
2022/11/11 09:04:11;;;;;;;10.13;4.45;;;8.10;80.20;;;;;;5030810;28;20271;-69
2022/11/11 09:07:18;;;;;;;7.28;4.38;;;8.10;80.20;;;;;;5020002;28;20232;-68
2022/11/11 09:10:05;;;;;;;9.18;4.38;;;8.10;80.00;;;;;;5025414;28;20745;-68
2022/11/11 09:12:56;;;;;;;7.50;4.50;;;8.10;80.20;;;;;;5024166;28;20302;-69
2022/11/11 09:15:44;;;;;;;7.22;4.80;;;8.00;80.20;;;;;;5025631;28;20205;-68
2022/11/11 09:18:31;;;;;;;8.75;4.88;;;8.00;80.30;;;;;;5022773;28;20575;-68
2022/11/11 09:21:18;;;;;;;11.68;5.03;;;8.00;80.50;;;;;;5023521;28;20220;-69
2022/11/11 09:24:05;;;;;;;9.95;4.82;;;8.10;80.50;;;;;;5024590;28;20271;-69
2022/11/11 09:26:52;;;;;;;13.05;5.47;;;8.10;80.60;;;;;;5024653;28;20729;-68
2022/11/11 09:29:38;;;;;;;6.97;4.10;;;8.10;80.70;;;;;;5027291;28;20712;-69
2022/11/11 09:32:26;;;;;;;14.32;6.50;;;8.10;80.80;;;;;;5023517;28;20208;-69
2022/11/11 09:35:12;;;;;;;7.80;5.15;;;8.20;80.80;;;;;;5024187;28;20204;-69
2022/11/11 09:38:01;;;;;;;9.45;5.40;;;8.20;80.80;;;;;;5026189;28;20223;-69
2022/11/11 09:41:04;;;;;;;19.67;6.78;;;8.30;80.90;;;;;;5026786;28;20220;-68
2022/11/11 09:43:55;;;;;;;14.25;6.00;;;8.30;81.10;;;;;;5024163;28;20223;-68
2022/11/11 09:46:52;;;;;;;11.55;5.72;;;8.40;81.10;;;;;;5022932;28;20252;-69
2022/11/11 09:49:52;;;;;;;15.20;7.85;;;8.40;81.10;;;;;;5025031;28;20254;-68
2022/11/11 09:52:43;;;;;;;22.30;8.13;;;8.40;81.10;;;;;;5023653;28;20717;-69
2022/11/11 09:55:33;;;;;;;18.00;5.97;;;8.40;80.90;;;;;;5024900;28;20209;-69
2022/11/11 09:58:24;;;;;;;12.25;7.22;;;8.40;81.10;;;;;;5024399;28;20250;-69
2022/11/11 10:01:16;;;;;;;21.92;8.40;;;8.40;80.90;;;;;;5025054;28;20295;-69
2022/11/11 10:04:12;;;;;;;12.98;8.15;;;8.30;81.10;;;;;;5026431;28;20228;-68
2022/11/11 10:07:07;;;;;;;20.27;9.32;;;8.30;81.10;;;;;;5026718;28;20287;-68
2022/11/11 10:09:57;;;;;;;24.92;9.60;;;8.20;81.10;;;;;;5026263;28;20312;-69
2022/11/11 10:12:49;;;;;;;18.02;9.88;;;8.10;81.30;;;;;;5025531;28;20591;-69
2022/11/11 10:15:44;;;;;;;12.68;7.47;;;8.10;81.60;;;;;;5024887;28;20298;-69
2022/11/11 10:18:53;;;;;;;17.25;9.68;;;8.20;81.80;;;;;;5025340;28;20213;-68
2022/11/11 10:21:44;;;;;;;14.25;8.50;;;8.20;82.00;;;;;;5026522;28;20239;-68
2022/11/11 10:25:03;;;;;;;11.65;6.80;;;8.30;82.10;;;;;;5021948;28;20810;-68
2022/11/11 10:27:52;;;;;;;18.38;10.18;;;8.40;82.30;;;;;;5026041;28;20787;-69
2022/11/11 10:30:39;;;;;;;12.95;8.20;;;8.50;82.50;;;;;;5023859;28;20216;-69
2022/11/11 10:33:30;;;;;;;10.27;7.07;;;8.60;82.30;;;;;;5026098;28;20215;-68
2022/11/11 10:36:20;;;;;;;11.88;8.18;;;8.70;82.40;;;;;;5026152;28;20224;-68
2022/11/11 10:39:10;;;;;;;11.73;8.27;;;8.80;82.60;;;;;;5022045;28;20220;-68
2022/11/11 10:41:58;;;;;;;11.40;8.10;;;8.90;82.60;;;;;;5024819;28;20255;-69
2022/11/11 10:44:45;;;;;;;12.73;8.85;;;9.00;82.70;;;;;;5024994;28;21237;-68
2022/11/11 10:47:45;;;;;;;13.02;7.60;;;9.10;82.70;;;;;;5027678;28;20346;-68
2022/11/11 10:50:35;;;;;;;12.03;8.00;;;9.10;82.80;;;;;;5025620;28;20235;-69
2022/11/11 10:53:29;;;;;;;10.63;7.68;;;9.20;82.90;;;;;;5024499;28;20824;-69
2022/11/11 10:56:22;;;;;;;10.33;6.80;;;9.30;82.90;;;;;;5021854;28;20279;-70
2022/11/11 10:59:21;;;;;;;10.40;6.80;;;9.30;82.80;;;;;;5023094;28;20454;-68
2022/11/11 11:02:17;;;;;;;10.77;6.80;;;9.40;82.80;;;;;;5027040;28;20455;-68
2022/11/11 11:05:09;;;;;;;9.93;6.80;;;9.30;82.80;;;;;;5021643;28;20472;-69
2022/11/11 11:08:00;;;;;;;10.07;6.70;;;9.40;82.90;;;;;;5023095;28;20276;-68
2022/11/11 11:10:52;;;;;;;11.23;7.03;;;9.40;83.10;;;;;;5021152;28;20446;-68
2022/11/11 11:13:43;;;;;;;8.43;5.80;;;9.40;83.20;;;;;;5025563;28;20463;-69
2022/11/11 11:16:34;;;;;;;9.03;6.00;;;9.50;83.30;;;;;;5025950;28;20619;-69
2022/11/11 11:19:22;;;;;;;10.83;6.90;;;9.60;83.60;;;;;;5020265;28;20528;-69
2022/11/11 11:22:09;;;;;;;9.30;6.83;;;9.80;83.60;;;;;;5020340;28;21072;-69
2022/11/11 11:25:10;;;;;;;8.97;6.80;;;9.90;83.50;;;;;;5019908;28;20483;-69
2022/11/11 11:28:07;;;;;;;10.67;6.90;;;10.10;83.50;;;;;;5015034;28;20469;-69
2022/11/11 11:31:02;;;;;;;9.37;6.47;;;10.20;83.40;;;;;;5015802;28;21020;-69
2022/11/11 11:33:55;;;;;;;9.60;6.13;;;10.30;83.30;;;;;;5020479;28;20482;-69
2022/11/11 11:36:41;;;;;;;8.63;6.07;;;10.40;83.20;;;;;;5020351;28;20496;-69
2022/11/11 11:39:35;;;;;;;9.23;6.27;;;10.50;83.20;;;;;;5021060;28;20992;-69
2022/11/11 11:42:28;;;;;;;8.77;6.60;;;10.60;83.20;;;;;;5021472;28;20467;-69
2022/11/11 11:45:20;;;;;;;7.80;5.37;;;10.60;82.90;;;;;;5022239;28;20483;-69
2022/11/11 11:48:18;;;;;;;11.17;7.80;;;10.70;83.00;;;;;;5020511;28;20494;-69
2022/11/11 11:51:36;;;;;;;9.70;6.80;;;10.70;83.00;;;;;;5022891;28;20463;-69
2022/11/11 11:54:50;;;;;;;12.97;6.93;;;10.70;83.00;;;;;;5029365;28;20463;-69
2022/11/11 11:57:54;;;;;;;9.93;6.37;;;10.80;83.20;;;;;;5022679;28;20498;-69
2022/11/11 12:00:46;;;;;;;9.23;6.63;;;10.80;83.30;;;;;;5026265;28;20491;-68
2022/11/11 12:04:22;;;;;;;15.00;6.40;;;10.90;83.30;;;;;;5023898;28;20459;-69
2022/11/11 12:07:24;;;;;;;11.47;6.80;;;11.00;83.40;;;;;;5018546;28;20573;-69
2022/11/11 12:10:27;;;;;;;9.40;7.10;;;11.10;83.40;;;;;;5020456;28;20450;-68
2022/11/11 12:13:23;;;;;;;14.10;8.07;;;11.20;83.50;;;;;;5020406;28;20490;-70
2022/11/11 12:16:23;;;;;;;11.37;7.80;;;11.30;83.50;;;;;;5023584;28;20905;-70
2022/11/11 12:19:32;;;;;;;11.90;7.33;;;11.40;83.40;;;;;;5026493;28;20459;-70
2022/11/11 12:22:33;;;;;;;12.83;8.23;;;11.40;83.20;;;;;;5020488;28;20471;-69
2022/11/11 12:25:42;;;;;;;10.67;7.33;;;11.40;83.20;;;;;;5023158;28;20478;-69
2022/11/11 12:28:43;;;;;;;10.03;6.60;;;11.40;83.10;;;;;;5023530;28;20459;-68
2022/11/11 12:31:40;;;;;;;11.00;7.47;;;11.50;83.20;;;;;;5026692;28;20599;-70
2022/11/11 12:34:50;;;;;;;10.53;7.07;;;11.50;83.10;;;;;;5027379;28;20987;-69
2022/11/11 12:37:49;;;;;;;11.40;7.63;;;11.50;83.30;;;;;;5024566;28;20586;-69
2022/11/11 12:40:49;;;;;;;11.10;8.17;;;11.50;83.30;;;;;;5029493;28;20471;-69
2022/11/11 12:43:47;;;;;;;10.50;7.83;;;11.50;83.30;;;;;;5024755;28;20598;-69
2022/11/11 12:46:47;;;;;;;11.50;7.60;;;11.60;83.30;;;;;;5032094;28;20478;-69
2022/11/11 12:49:46;;;;;;;11.70;8.10;;;11.60;83.40;;;;;;5026342;28;20448;-69
2022/11/11 12:52:43;;;;;;;17.80;9.70;;;11.60;83.40;;;;;;5022112;28;20456;-69
2022/11/11 12:55:37;;;;;;;14.83;9.20;;;11.60;83.40;;;;;;5022136;28;20488;-70
2022/11/11 12:58:32;;;;;;;14.30;9.77;;;11.60;83.40;;;;;;5030015;28;20530;-68
2022/11/11 13:01:39;;;;;;;18.90;11.80;;;11.60;83.40;;;;;;5026068;28;20454;-69
2022/11/11 13:04:55;;;;;;;14.37;10.70;;;11.60;83.30;;;;;;5027198;28;20550;-69
2022/11/11 13:08:01;;;;;;;19.73;12.87;;;11.60;83.20;;;;;;5028176;28;21366;-69
2022/11/11 13:10:56;;;;;;;17.97;12.23;;;11.60;83.20;;;;;;5022961;28;20460;-69
2022/11/11 13:13:58;;;;;;;21.37;13.30;;;11.50;83.20;;;;;;5024647;28;20455;-69
2022/11/11 13:16:45;;;;;;;18.70;12.77;;;11.50;83.10;;;;;;5026108;28;21077;-69
2022/11/11 13:19:41;;;;;;;23.53;14.50;;;11.50;83.10;;;;;;5021331;28;21030;-69
2022/11/11 13:22:30;;;;;;;19.47;13.03;;;11.50;83.10;;;;;;5023635;28;20471;-69
2022/11/11 13:25:22;;;;;;;23.93;14.53;;;11.50;83.10;;;;;;5028936;28;20458;-69
2022/11/11 13:28:17;;;;;;;25.83;15.87;;;11.50;83.20;;;;;;5020147;28;20799;-69
2022/11/11 13:31:14;;;;;;;24.10;15.80;;;11.50;83.20;;;;;;5024013;28;21166;-69
2022/11/11 13:34:05;;;;;;;25.20;15.10;;;11.50;83.20;;;;;;5029266;28;21008;-69
2022/11/11 13:36:55;;;;;;;25.17;14.60;;;11.50;83.20;;;;;;5019693;28;20483;-70
2022/11/11 13:39:46;;;;;;;22.10;13.67;;;11.50;83.20;;;;;;5018440;28;21035;-71
2022/11/11 13:42:39;;;;;;;24.90;15.00;;;11.50;83.30;;;;;;5022420;28;20479;-70
2022/11/11 13:45:30;;;;;;;23.13;14.40;;;11.60;83.40;;;;;;5027496;28;20455;-69
2022/11/11 13:48:27;;;;;;;24.87;16.20;;;11.60;83.30;;;;;;5024167;28;20601;-69
2022/11/11 13:51:26;;;;;;;22.50;14.87;;;11.60;83.30;;;;;;5025138;28;20960;-70
2022/11/11 13:54:27;;;;;;;23.60;15.07;;;11.60;83.20;;;;;;5025257;28;20808;-69
2022/11/11 13:57:21;;;;;;;25.67;15.70;;;11.60;83.20;;;;;;5025060;28;20462;-68
2022/11/11 14:00:26;;;;;;;23.17;14.47;;;11.60;83.30;;;;;;5021984;28;20611;-68
2022/11/11 14:03:31;;;;;;;22.97;15.10;;;11.60;83.30;;;;;;5022725;28;20444;-70
2022/11/11 14:06:52;;;;;;;23.80;14.93;;;11.60;83.30;;;;;;5029624;28;20614;-69
2022/11/11 14:10:01;;;;;;;20.37;14.40;;;11.60;83.30;;;;;;5022427;28;20462;-69
2022/11/11 14:12:49;;;;;;;23.80;15.60;;;11.50;83.20;;;;;;5022654;28;20451;-69
2022/11/11 14:15:41;;;;;;;22.50;14.50;;;11.50;83.30;;;;;;5026693;28;20502;-69
2022/11/11 14:18:44;;;;;;;25.43;14.97;;;11.50;83.30;;;;;;5021778;28;20463;-69
2022/11/11 14:21:47;;;;;;;24.20;15.50;;;11.50;83.30;;;;;;5021496;28;20959;-69
2022/11/11 14:24:40;;;;;;;24.50;15.17;;;11.50;83.40;;;;;;5019374;28;20460;-69
2022/11/11 14:27:30;;;;;;;25.10;17.10;;;11.50;83.40;;;;;;5020684;28;20759;-69
2022/11/11 14:30:39;;;;;;;27.17;16.83;;;11.50;83.40;;;;;;5026781;28;20526;-68
2022/11/11 14:33:44;;;;;;;29.70;16.53;;;11.40;83.40;;;;;;5023188;28;20481;-69
2022/11/11 14:36:40;;;;;;;29.20;17.10;;;11.40;83.50;;;;;;5024801;28;20479;-69
2022/11/11 14:39:38;;;;;;;29.97;16.90;;;11.40;83.40;;;;;;5021019;28;20603;-69
2022/11/11 14:42:45;;;;;;;27.10;17.00;;;11.40;83.40;;;;;;5011271;28;20462;-69
2022/11/11 14:46:05;;;;;;;24.10;15.43;;;11.40;83.30;;;;;;5019198;28;21089;-69
2022/11/11 14:49:00;;;;;;;24.77;15.50;;;11.30;83.30;;;;;;5023712;28;20446;-69
2022/11/11 14:51:56;;;;;;;26.20;16.50;;;11.30;83.30;;;;;;5022024;28;20455;-68
2022/11/11 14:55:05;;;;;;;27.93;17.37;;;11.30;83.30;;;;;;5023735;28;21064;-69
2022/11/11 14:57:58;;;;;;;28.20;17.30;;;11.30;83.30;;;;;;5020668;28;20537;-70
2022/11/11 15:00:48;;;;;;;22.87;14.60;;;11.20;83.40;;;;;;5017655;28;20459;-70
2022/11/11 15:03:39;;;;;;;22.27;15.60;;;11.20;83.40;;;;;;5026342;28;20459;-69
2022/11/11 15:06:32;;;;;;;24.67;16.20;;;11.20;83.40;;;;;;5019703;28;20478;-70
2022/11/11 15:09:39;;;;;;;25.20;16.17;;;11.20;83.40;;;;;;5027669;28;20505;-69
2022/11/11 15:12:38;;;;;;;22.27;14.70;;;11.10;83.40;;;;;;5016273;28;20463;-69
2022/11/11 15:15:31;;;;;;;21.60;13.47;;;11.10;83.40;;;;;;5019777;28;20518;-69
2022/11/11 15:18:33;;;;;;;22.50;14.90;;;11.10;83.40;;;;;;5026273;28;20553;-70
2022/11/11 15:21:30;;;;;;;20.13;13.00;;;11.00;83.20;;;;;;5022148;28;20455;-68
2022/11/11 15:24:31;;;;;;;18.10;12.90;;;11.00;83.40;;;;;;5021934;28;20806;-70
2022/11/11 15:27:28;;;;;;;17.73;12.27;;;11.00;83.40;;;;;;5022983;28;20486;-69
2022/11/11 15:30:16;;;;;;;19.33;13.13;;;10.90;83.40;;;;;;5020487;28;20448;-68
2022/11/11 15:33:13;;;;;;;17.77;12.20;;;10.90;83.40;;;;;;5020664;28;20582;-69
2022/11/11 15:36:10;;;;;;;18.97;12.10;;;10.90;83.40;;;;;;5024010;28;21062;-70
2022/11/11 15:39:03;;;;;;;18.97;11.30;;;10.90;83.40;;;;;;5024216;28;20455;-69
2022/11/11 15:41:51;;;;;;;21.70;13.50;;;10.80;83.40;;;;;;5017814;28;20482;-69
2022/11/11 15:44:38;;;;;;;18.27;12.73;;;10.80;83.40;;;;;;5018855;28;20467;-70
2022/11/11 15:47:26;;;;;;;23.27;13.90;;;10.80;83.40;;;;;;5018941;28;20471;-69
2022/11/11 15:50:31;;;;;;;19.17;13.50;;;10.70;83.40;;;;;;5030212;28;20450;-68
2022/11/11 15:53:24;;;;;;;19.50;11.80;;;10.70;83.40;;;;;;5020736;28;20534;-68
2022/11/11 15:56:12;;;;;;;20.73;12.60;;;10.70;83.40;;;;;;5021992;28;20467;-69
2022/11/11 15:59:15;;;;;;;15.80;11.40;;;10.60;83.30;;;;;;5026233;28;20443;-69